createdAt,value
2017-11-08T00:00:19.716Z,78.10
2017-11-08T00:02:48.075Z,78.00
2017-11-08T00:05:15.692Z,77.90
2017-11-08T00:07:43.258Z,78.30
2017-11-08T00:10:10.828Z,78.70
2017-11-08T00:12:38.436Z,78.70
2017-11-08T00:15:06.050Z,79.10
2017-11-08T00:17:33.611Z,79.00
2017-11-08T00:20:01.977Z,78.90
2017-11-08T00:22:29.578Z,78.90
2017-11-08T00:24:59.098Z,78.70
2017-11-08T00:27:26.678Z,78.80
2017-11-08T00:29:54.266Z,78.70
2017-11-08T00:32:21.845Z,78.60
2017-11-08T00:34:50.214Z,77.70
2017-11-08T00:37:17.764Z,77.60
2017-11-08T00:39:45.315Z,78.80
2017-11-08T00:42:12.901Z,78.60
2017-11-08T00:44:41.242Z,78.40
2017-11-08T00:47:08.852Z,78.30
2017-11-08T00:49:37.180Z,78.50
2017-11-08T00:52:04.745Z,78.50
2017-11-08T00:54:32.343Z,78.40
2017-11-08T00:57:00.681Z,78.30
2017-11-08T00:59:28.244Z,78.30
2017-11-08T01:01:55.821Z,77.90
2017-11-08T01:04:23.430Z,78.40
2017-11-08T01:06:50.993Z,79.00
2017-11-08T01:09:18.563Z,78.20
2017-11-08T01:11:46.178Z,77.80
2017-11-08T01:14:13.738Z,77.90
2017-11-08T01:16:41.290Z,77.90
2017-11-08T01:19:08.896Z,78.10
2017-11-08T01:21:36.464Z,78.30
2017-11-08T01:24:04.056Z,78.20
2017-11-08T01:26:31.610Z,78.50
2017-11-08T01:28:59.214Z,78.30
2017-11-08T01:31:27.556Z,78.40
2017-11-08T01:33:55.121Z,78.40
2017-11-08T01:36:22.746Z,78.70
2017-11-08T01:38:50.318Z,78.70
2017-11-08T01:41:23.566Z,78.50
2017-11-08T01:43:54.364Z,78.80
2017-11-08T01:46:21.926Z,78.70
2017-11-08T01:48:49.523Z,78.30
2017-11-08T01:51:17.846Z,78.70
2017-11-08T01:53:45.450Z,78.70
2017-11-08T01:56:13.029Z,78.40
2017-11-08T01:58:41.390Z,78.70
2017-11-08T02:01:08.982Z,78.60
2017-11-08T02:03:36.544Z,78.50
2017-11-08T02:06:04.145Z,78.50
2017-11-08T02:08:31.727Z,78.60
2017-11-08T02:10:59.319Z,77.90
2017-11-08T02:13:27.650Z,77.70
2017-11-08T02:15:57.018Z,77.60
2017-11-08T02:18:24.579Z,77.20
2017-11-08T02:20:52.178Z,77.40
2017-11-08T02:23:19.742Z,77.30
2017-11-08T02:25:47.350Z,78.00
2017-11-08T02:28:17.857Z,78.40
2017-11-08T02:30:46.241Z,78.70
2017-11-08T02:33:14.595Z,78.70
2017-11-08T02:35:42.154Z,78.70
2017-11-08T02:38:09.805Z,78.70
2017-11-08T02:40:37.361Z,78.70
2017-11-08T02:43:04.921Z,78.90
2017-11-08T02:45:35.381Z,78.70
2017-11-08T02:48:03.715Z,78.50
2017-11-08T02:50:31.271Z,78.50
2017-11-08T02:52:58.865Z,78.20
2017-11-08T02:55:26.471Z,78.50
2017-11-08T02:57:54.032Z,78.40
2017-11-08T03:00:21.624Z,78.70
2017-11-08T03:02:51.151Z,78.60
2017-11-08T03:05:18.764Z,78.60
2017-11-08T03:07:46.345Z,79.00
2017-11-08T03:10:13.911Z,78.80
2017-11-08T03:12:41.522Z,79.00
2017-11-08T03:15:09.855Z,78.60
2017-11-08T03:17:37.411Z,78.50
2017-11-08T03:20:05.008Z,78.80
2017-11-08T03:22:32.560Z,78.90
2017-11-08T03:25:00.179Z,79.30
2017-11-08T03:27:27.741Z,79.60
2017-11-08T03:29:55.310Z,80.00
2017-11-08T03:32:22.914Z,80.40
2017-11-08T03:34:50.513Z,81.20
2017-11-08T03:37:18.078Z,81.70
2017-11-08T03:39:45.638Z,82.20
2017-11-08T03:42:13.234Z,82.40
2017-11-08T03:44:40.790Z,82.70
2017-11-08T03:47:08.397Z,83.00
2017-11-08T03:49:36.719Z,83.70
2017-11-08T03:52:04.274Z,83.70
2017-11-08T03:54:31.854Z,83.90
2017-11-08T03:56:59.451Z,83.90
2017-11-08T03:59:27.768Z,84.50
2017-11-08T04:01:55.441Z,84.50
2017-11-08T04:04:23.032Z,84.90
2017-11-08T04:06:50.622Z,85.50
2017-11-08T04:09:18.237Z,85.20
2017-11-08T04:11:45.796Z,85.10
2017-11-08T04:14:13.367Z,85.50
2017-11-08T04:16:40.992Z,85.30
2017-11-08T04:19:08.567Z,85.40
2017-11-08T04:21:36.117Z,85.60
2017-11-08T04:24:03.720Z,85.50
2017-11-08T04:26:31.289Z,85.60
2017-11-08T04:28:58.889Z,86.30
2017-11-08T04:31:26.494Z,86.00
2017-11-08T04:33:54.062Z,85.90
2017-11-08T04:36:21.653Z,86.30
2017-11-08T04:38:49.983Z,87.40
2017-11-08T04:41:17.586Z,86.70
2017-11-08T04:43:45.940Z,86.40
2017-11-08T04:46:13.549Z,86.40
2017-11-08T04:48:41.139Z,86.70
2017-11-08T04:51:08.695Z,86.00
2017-11-08T04:53:36.296Z,86.70
2017-11-08T04:56:04.628Z,87.60
2017-11-08T04:58:32.222Z,87.50
2017-11-08T05:00:59.809Z,87.60
2017-11-08T05:03:28.163Z,87.30
2017-11-08T05:05:55.771Z,87.30
2017-11-08T05:08:23.330Z,87.10
2017-11-08T05:10:50.885Z,87.20
2017-11-08T05:13:18.532Z,87.00
2017-11-08T05:15:46.098Z,86.70
2017-11-08T05:18:14.444Z,87.60
2017-11-08T05:20:42.064Z,87.50
2017-11-08T05:23:09.624Z,87.60
2017-11-08T05:25:37.224Z,87.40
2017-11-08T05:28:04.793Z,87.90
2017-11-08T05:30:32.729Z,87.80
2017-11-08T05:33:00.315Z,88.00
2017-11-08T05:35:28.657Z,87.90
2017-11-08T05:37:56.254Z,87.80
2017-11-08T05:40:23.865Z,87.60
2017-11-08T05:42:51.430Z,87.60
2017-11-08T05:45:19.014Z,87.40
2017-11-08T05:47:46.622Z,87.20
2017-11-08T05:50:14.954Z,87.40
2017-11-08T05:52:42.516Z,87.40
2017-11-08T05:55:10.103Z,87.70
2017-11-08T05:57:37.733Z,88.10
2017-11-08T06:00:05.337Z,88.30
2017-11-08T06:02:33.667Z,88.40
2017-11-08T06:05:01.251Z,88.40
2017-11-08T06:07:28.830Z,88.10
2017-11-08T06:09:57.202Z,88.30
2017-11-08T06:12:24.769Z,88.30
2017-11-08T06:14:52.397Z,88.20
2017-11-08T06:17:20.000Z,88.40
2017-11-08T06:19:47.632Z,88.30
2017-11-08T06:22:15.190Z,87.90
2017-11-08T06:24:42.798Z,88.30
2017-11-08T06:27:10.370Z,88.30
2017-11-08T06:29:37.965Z,87.50
2017-11-08T06:32:05.580Z,88.00
2017-11-08T06:34:33.989Z,87.70
2017-11-08T06:37:01.559Z,87.80
2017-11-08T06:39:29.162Z,87.30
2017-11-08T06:41:56.810Z,88.10
2017-11-08T06:44:24.422Z,88.30
2017-11-08T06:46:51.973Z,87.90
2017-11-08T06:49:20.351Z,87.40
2017-11-08T06:51:48.682Z,87.60
2017-11-08T06:54:16.279Z,87.60
2017-11-08T06:56:45.214Z,87.80
2017-11-08T06:59:12.774Z,87.80
2017-11-08T07:01:40.366Z,88.00
2017-11-08T07:04:07.977Z,88.20
2017-11-08T07:06:37.383Z,88.20
2017-11-08T07:09:04.985Z,88.30
2017-11-08T07:11:32.577Z,88.10
2017-11-08T07:14:00.902Z,87.70
2017-11-08T07:16:28.511Z,87.70
2017-11-08T07:18:56.839Z,87.50
2017-11-08T07:21:24.403Z,87.50
2017-11-08T07:23:51.990Z,87.00
2017-11-08T07:26:19.549Z,87.60
2017-11-08T07:28:47.150Z,87.80
2017-11-08T07:31:14.707Z,88.50
2017-11-08T07:33:43.066Z,88.10
2017-11-08T07:36:11.388Z,88.30
2017-11-08T07:38:39.151Z,88.20
2017-11-08T07:41:06.711Z,88.10
2017-11-08T07:43:34.318Z,87.60
2017-11-08T07:46:01.934Z,87.00
2017-11-08T07:48:29.535Z,85.00
2017-11-08T07:50:57.199Z,87.40
2017-11-08T07:56:38.372Z,88.10
2017-11-08T07:59:17.693Z,88.40
2017-11-08T08:01:46.981Z,88.30
2017-11-08T08:04:14.709Z,88.30
2017-11-08T08:06:43.086Z,88.00
2017-11-08T08:09:18.252Z,88.00
2017-11-08T08:11:51.953Z,88.30
2017-11-08T08:14:21.220Z,87.90
2017-11-08T08:16:49.361Z,87.80
2017-11-08T08:23:20.905Z,88.20
2017-11-08T08:26:14.292Z,87.60
2017-11-08T08:35:04.212Z,87.10
2017-11-08T08:37:31.847Z,87.80
2017-11-08T08:40:00.229Z,87.70
2017-11-08T08:42:27.818Z,88.20
2017-11-08T08:44:55.667Z,87.30
2017-11-08T08:47:24.313Z,87.60
2017-11-08T08:49:52.697Z,87.60
2017-11-08T08:52:23.275Z,88.00
2017-11-08T08:54:54.417Z,87.50
2017-11-08T08:57:23.460Z,87.50
2017-11-08T08:59:51.149Z,86.60
2017-11-08T09:02:23.153Z,86.40
2017-11-08T09:04:50.785Z,86.80
2017-11-08T09:07:19.166Z,86.60
2017-11-08T09:09:46.779Z,86.60
2017-11-08T09:12:14.392Z,86.50
2017-11-08T09:14:42.774Z,86.60
2017-11-08T09:20:00.600Z,86.80
2017-11-08T09:22:28.170Z,86.70
2017-11-08T09:24:55.911Z,86.70
2017-11-08T09:27:23.494Z,86.50
2017-11-08T09:29:55.932Z,87.00
2017-11-08T09:32:24.313Z,87.00
2017-11-08T09:34:52.382Z,87.00
2017-11-08T09:37:25.694Z,87.40
2017-11-08T09:39:53.289Z,86.90
2017-11-08T09:42:21.655Z,86.70
2017-11-08T09:44:49.277Z,86.70
2017-11-08T09:47:18.674Z,87.50
2017-11-08T09:49:46.254Z,86.70
2017-11-08T09:52:13.855Z,85.70
2017-11-08T09:54:42.256Z,87.10
2017-11-08T09:57:10.619Z,87.10
2017-11-08T09:59:38.326Z,86.80
2017-11-08T10:02:05.895Z,85.60
2017-11-08T10:04:33.469Z,85.90
2017-11-08T10:07:01.092Z,86.40
2017-11-08T10:09:29.583Z,86.50
2017-11-08T10:12:02.148Z,85.70
2017-11-08T10:14:29.839Z,86.40
2017-11-08T10:16:57.879Z,86.40
2017-11-08T10:19:33.931Z,86.10
2017-11-08T10:22:16.983Z,85.20
2017-11-08T10:24:46.408Z,85.50
2017-11-08T10:27:13.982Z,85.80
2017-11-08T10:29:41.571Z,85.80
2017-11-08T10:32:09.180Z,86.70
2017-11-08T10:34:36.791Z,86.10
2017-11-08T10:37:04.367Z,85.70
2017-11-08T10:39:32.689Z,86.00
2017-11-08T10:44:28.298Z,86.20
2017-11-08T10:46:56.269Z,85.40
2017-11-08T10:49:31.377Z,86.60
2017-11-08T10:51:59.379Z,86.50
2017-11-08T10:54:31.084Z,85.60
2017-11-08T10:56:58.924Z,85.60
2017-11-08T10:59:27.786Z,86.10
2017-11-08T11:02:00.278Z,85.80
2017-11-08T11:04:29.023Z,86.30
2017-11-08T11:06:57.046Z,86.20
2017-11-08T11:09:24.700Z,86.10
2017-11-08T11:11:52.415Z,86.20
2017-11-08T11:14:19.986Z,86.70
2017-11-08T11:16:47.805Z,86.70
2017-11-08T11:19:21.300Z,86.80
2017-11-08T11:21:49.696Z,86.40
2017-11-08T11:24:19.372Z,86.30
2017-11-08T11:26:48.701Z,86.50
2017-11-08T11:29:17.080Z,86.00
2017-11-08T11:31:45.406Z,86.30
2017-11-08T11:34:12.986Z,86.30
2017-11-08T11:36:41.394Z,87.70
2017-11-08T11:39:13.011Z,87.00
2017-11-08T11:41:40.619Z,87.20
2017-11-08T11:44:09.022Z,86.70
2017-11-08T11:46:38.399Z,86.70
2017-11-08T11:49:10.996Z,87.80
2017-11-08T11:51:38.634Z,87.80
2017-11-08T11:54:07.024Z,86.70
2017-11-08T11:56:35.363Z,86.30
2017-11-08T11:59:02.936Z,86.30
2017-11-08T12:01:30.538Z,86.30
2017-11-08T12:03:58.862Z,86.30
2017-11-08T12:06:27.558Z,86.30
2017-11-08T12:08:55.139Z,86.70
2017-11-08T12:11:23.551Z,86.70
2017-11-08T12:13:51.896Z,86.30
2017-11-08T12:16:19.584Z,86.20
2017-11-08T12:18:47.952Z,86.30
2017-11-08T12:21:16.296Z,86.60
2017-11-08T12:23:43.947Z,86.40
2017-11-08T12:26:11.509Z,86.40
2017-11-08T12:28:44.927Z,86.70
2017-11-08T12:31:12.530Z,86.80
2017-11-08T12:33:41.030Z,87.30
2017-11-08T12:36:08.863Z,86.70
2017-11-08T12:38:38.065Z,86.70
2017-11-08T12:41:05.667Z,86.20
2017-11-08T12:43:33.281Z,86.20
2017-11-08T12:46:00.944Z,86.90
2017-11-08T12:48:30.110Z,87.10
2017-11-08T12:50:57.713Z,87.10
2017-11-08T12:53:26.125Z,86.60
2017-11-08T12:55:54.759Z,86.80
2017-11-08T12:58:22.417Z,86.20
2017-11-08T13:00:50.030Z,86.50
2017-11-08T13:03:17.628Z,86.30
2017-11-08T13:06:04.883Z,86.00
2017-11-08T13:08:33.294Z,86.20
2017-11-08T13:11:05.713Z,86.20
2017-11-08T13:13:33.354Z,86.50
2017-11-08T13:16:00.989Z,86.40
2017-11-08T13:18:28.643Z,86.20
2017-11-08T13:20:56.282Z,86.60
2017-11-08T13:23:23.851Z,86.10
2017-11-08T13:25:52.230Z,86.50
2017-11-08T13:28:20.592Z,86.60
2017-11-08T13:30:48.300Z,86.60
2017-11-08T13:33:15.903Z,86.20
2017-11-08T13:35:43.498Z,85.90
2017-11-08T13:38:11.825Z,86.30
2017-11-08T13:40:39.437Z,86.10
2017-11-08T13:43:07.783Z,86.10
2017-11-08T13:45:35.398Z,86.00
2017-11-08T13:48:02.994Z,86.30
2017-11-08T13:50:30.599Z,85.70
2017-11-08T13:52:58.970Z,86.10
2017-11-08T13:55:26.530Z,86.10
2017-11-08T13:57:55.585Z,86.60
2017-11-08T14:00:23.327Z,86.70
2017-11-08T14:02:50.968Z,86.40
2017-11-08T14:05:19.343Z,87.10
2017-11-08T14:07:46.913Z,86.40
2017-11-08T14:10:14.538Z,86.10
2017-11-08T14:12:42.236Z,85.80
2017-11-08T14:15:10.657Z,85.80
2017-11-08T14:17:38.268Z,85.80
2017-11-08T14:20:06.676Z,85.60
2017-11-08T14:22:34.263Z,85.40
2017-11-08T14:25:01.824Z,85.50
2017-11-08T14:27:30.447Z,85.40
2017-11-08T14:30:16.852Z,86.40
2017-11-08T14:32:48.066Z,86.10
2017-11-08T14:35:17.998Z,85.70
2017-11-08T14:37:47.046Z,85.60
2017-11-08T14:40:17.027Z,85.80
2017-11-08T14:42:47.238Z,86.10
2017-11-08T14:45:15.443Z,85.20
2017-11-08T14:47:43.276Z,86.10
2017-11-08T14:50:11.121Z,85.60
2017-11-08T14:52:38.700Z,85.40
2017-11-08T14:55:07.052Z,85.40
2017-11-08T14:57:34.649Z,85.10
2017-11-08T15:00:02.231Z,85.80
2017-11-08T15:02:30.611Z,85.10
2017-11-08T15:04:58.995Z,85.30
2017-11-08T15:07:26.627Z,85.20
2017-11-08T15:12:55.635Z,85.70
2017-11-08T15:15:23.247Z,85.50
2017-11-08T15:17:50.973Z,86.00
2017-11-08T15:20:24.479Z,85.80
2017-11-08T15:22:52.076Z,86.10
2017-11-08T15:25:19.706Z,86.00
2017-11-08T15:27:47.375Z,85.10
2017-11-08T15:30:21.552Z,85.50
2017-11-08T15:32:49.164Z,85.50
2017-11-08T15:35:17.524Z,85.80
2017-11-08T15:37:45.191Z,85.80
2017-11-08T15:40:16.758Z,86.00
2017-11-08T15:42:45.153Z,85.40
2017-11-08T15:45:12.723Z,85.40
2017-11-08T15:47:40.347Z,85.50
2017-11-08T15:50:07.978Z,85.60
2017-11-08T15:52:35.574Z,85.90
2017-11-08T15:55:10.498Z,86.00
2017-11-08T15:57:38.073Z,86.00
2017-11-08T16:00:07.089Z,85.80
2017-11-08T16:02:34.986Z,85.80
2017-11-08T16:05:02.559Z,85.90
2017-11-08T16:07:30.168Z,86.40
2017-11-08T16:09:57.738Z,86.50
2017-11-08T16:12:25.394Z,86.10
2017-11-08T16:14:53.021Z,86.40
2017-11-08T16:17:20.585Z,86.50
2017-11-08T16:19:48.138Z,86.40
2017-11-08T16:22:15.760Z,86.90
2017-11-08T16:24:43.331Z,86.60
2017-11-08T16:27:10.899Z,86.60
2017-11-08T16:29:38.590Z,86.40
2017-11-08T16:32:06.167Z,86.40
2017-11-08T16:34:34.524Z,86.80
2017-11-08T16:37:02.102Z,86.70
2017-11-08T16:39:30.493Z,86.80
2017-11-08T16:41:58.810Z,87.00
2017-11-08T16:44:26.422Z,87.00
2017-11-08T16:46:54.750Z,86.70
2017-11-08T16:49:22.336Z,86.60
2017-11-08T16:51:49.946Z,86.90
2017-11-08T16:54:17.506Z,86.90
2017-11-08T16:56:45.095Z,87.10
2017-11-08T16:59:12.763Z,86.90
2017-11-08T17:01:41.134Z,87.00
2017-11-08T17:04:08.719Z,87.00
2017-11-08T17:06:36.278Z,86.70
2017-11-08T17:09:05.888Z,87.00
2017-11-08T17:11:35.836Z,86.90
2017-11-08T17:14:06.236Z,87.50
2017-11-08T17:16:36.137Z,87.40
2017-11-08T17:19:08.348Z,86.80
2017-11-08T17:21:38.896Z,86.90
2017-11-08T17:24:08.476Z,86.90
2017-11-08T17:26:39.350Z,87.20
2017-11-08T17:29:08.971Z,87.40
2017-11-08T17:31:40.407Z,87.60
2017-11-08T17:34:11.289Z,87.30
2017-11-08T17:36:40.851Z,87.30
2017-11-08T17:39:11.675Z,87.10
2017-11-08T17:41:43.113Z,87.50
2017-11-08T17:44:15.581Z,87.30
2017-11-08T17:46:45.417Z,87.30
2017-11-08T17:49:15.931Z,87.30
2017-11-08T17:51:46.471Z,87.80
2017-11-08T17:54:17.296Z,87.70
2017-11-08T17:56:48.984Z,87.70
2017-11-08T17:59:20.750Z,87.40
2017-11-08T18:01:51.390Z,87.30
2017-11-08T18:04:21.299Z,87.10
2017-11-08T18:06:50.916Z,87.10
2017-11-08T18:09:20.656Z,87.20
2017-11-08T18:11:50.429Z,86.80
2017-11-08T18:14:21.549Z,87.20
2017-11-08T18:16:52.024Z,87.10
2017-11-08T18:19:22.112Z,87.10
2017-11-08T18:21:52.506Z,86.90
2017-11-08T18:24:23.249Z,86.50
2017-11-08T18:26:53.620Z,87.20
2017-11-08T18:29:23.512Z,87.20
2017-11-08T18:31:54.154Z,87.20
2017-11-08T18:34:24.726Z,87.70
2017-11-08T18:36:54.797Z,87.50
2017-11-08T18:39:24.888Z,88.20
2017-11-08T18:41:57.396Z,87.80
2017-11-08T18:44:27.146Z,87.70
2017-11-08T18:46:56.929Z,87.80
2017-11-08T18:49:26.540Z,87.90
2017-11-08T18:51:55.680Z,88.10
2017-11-08T18:54:25.369Z,88.10
2017-11-08T18:56:56.116Z,88.00
2017-11-08T18:59:26.659Z,87.70
2017-11-08T19:01:56.986Z,87.50
2017-11-08T19:04:27.364Z,87.70
2017-11-08T19:06:56.645Z,87.70
2017-11-08T19:09:27.211Z,88.30
2017-11-08T19:11:57.325Z,88.00
2017-11-08T19:14:28.138Z,88.00
2017-11-08T19:16:57.910Z,88.00
2017-11-08T19:19:27.695Z,88.30
2017-11-08T19:22:00.338Z,88.70
2017-11-08T19:24:30.346Z,88.40
2017-11-08T19:27:01.287Z,88.20
2017-11-08T19:29:32.455Z,88.60
2017-11-08T19:32:02.354Z,88.60
2017-11-08T19:34:35.305Z,88.40
2017-11-08T19:37:05.367Z,88.00
2017-11-08T19:39:35.280Z,88.40
2017-11-08T19:42:05.661Z,87.90
2017-11-08T19:44:37.832Z,87.50
2017-11-08T19:47:06.947Z,87.50
2017-11-08T19:49:38.243Z,87.70
2017-11-08T19:52:07.968Z,87.70
2017-11-08T19:54:41.618Z,87.70
2017-11-08T19:57:11.249Z,87.90
2017-11-08T19:59:41.152Z,87.40
2017-11-08T20:02:10.615Z,87.30
2017-11-08T20:04:38.209Z,87.60
2017-11-08T20:07:05.797Z,87.60
2017-11-08T20:09:34.261Z,87.80
2017-11-08T20:12:01.843Z,88.10
2017-11-08T20:14:29.469Z,87.70
2017-11-08T20:16:57.037Z,87.60
2017-11-08T20:19:24.642Z,87.70
2017-11-08T20:21:52.261Z,87.40
2017-11-08T20:24:19.823Z,87.50
2017-11-08T20:26:47.402Z,87.30
2017-11-08T20:29:15.007Z,87.90
2017-11-08T20:31:42.604Z,88.10
2017-11-08T20:34:10.163Z,87.60
2017-11-08T20:36:37.757Z,87.90
2017-11-08T20:39:05.356Z,87.70
2017-11-08T20:41:32.916Z,87.60
2017-11-08T20:44:00.558Z,87.50
2017-11-08T20:46:28.147Z,87.80
2017-11-08T20:48:56.519Z,87.60
2017-11-08T20:51:24.146Z,87.60
2017-11-08T20:53:51.749Z,87.60
2017-11-08T20:56:20.104Z,87.80
2017-11-08T20:58:47.671Z,87.70
2017-11-08T21:01:15.405Z,87.70
2017-11-08T21:03:46.449Z,87.70
2017-11-08T21:06:15.617Z,88.00
2017-11-08T21:08:43.302Z,87.80
2017-11-08T21:11:10.920Z,87.60
2017-11-08T21:13:39.303Z,88.30
2017-11-08T21:16:07.771Z,88.60
2017-11-08T21:18:35.414Z,88.50
2017-11-08T21:21:03.026Z,89.60
2017-11-08T21:23:30.664Z,88.70
2017-11-08T21:25:59.082Z,88.30
2017-11-08T21:28:26.651Z,88.30
2017-11-08T21:30:54.299Z,88.80
2017-11-08T21:33:21.913Z,89.20
2017-11-08T21:35:49.474Z,88.90
2017-11-08T21:38:17.091Z,88.30
2017-11-08T21:40:44.782Z,88.40
2017-11-08T21:43:13.641Z,88.60
2017-11-08T21:45:41.275Z,88.50
2017-11-08T21:48:09.671Z,88.40
2017-11-08T21:50:37.364Z,88.40
2017-11-08T21:53:05.262Z,88.00
2017-11-08T21:55:32.875Z,88.30
2017-11-08T21:58:00.589Z,88.70
2017-11-08T22:00:29.127Z,88.50
2017-11-08T22:02:56.812Z,88.50
2017-11-08T22:05:24.568Z,88.70
2017-11-08T22:07:52.282Z,89.90
2017-11-08T22:10:20.705Z,88.40
2017-11-08T22:12:48.461Z,88.40
2017-11-08T22:15:16.080Z,88.70
2017-11-08T22:17:44.435Z,89.40
2017-11-08T22:20:12.060Z,89.40
2017-11-08T22:22:39.676Z,89.10
2017-11-08T22:25:08.056Z,88.60
2017-11-08T22:27:36.560Z,88.00
2017-11-08T22:30:04.977Z,88.00
2017-11-08T22:32:32.624Z,88.00
2017-11-08T22:35:00.235Z,88.00
2017-11-08T22:37:27.966Z,87.90
2017-11-08T22:39:55.715Z,88.20
2017-11-08T22:42:23.274Z,87.80
2017-11-08T22:44:50.871Z,87.60
2017-11-08T22:47:18.446Z,88.40
2017-11-08T22:49:46.044Z,87.70
2017-11-08T22:52:13.660Z,88.30
2017-11-08T22:54:41.238Z,88.00
2017-11-08T22:57:09.542Z,88.10
2017-11-08T22:59:37.148Z,88.60
2017-11-08T23:02:04.731Z,88.50
2017-11-08T23:04:32.284Z,87.80
2017-11-08T23:06:59.891Z,87.60
2017-11-08T23:09:27.483Z,87.50
2017-11-08T23:11:55.104Z,87.70
2017-11-08T23:14:23.431Z,89.00
2017-11-08T23:16:51.034Z,89.00
2017-11-08T23:19:19.373Z,88.60
2017-11-08T23:21:46.947Z,88.60
2017-11-08T23:24:14.543Z,88.30
2017-11-08T23:26:42.912Z,89.20
2017-11-08T23:29:11.242Z,88.90
2017-11-08T23:31:38.818Z,88.90
2017-11-08T23:34:06.412Z,89.00
2017-11-08T23:36:34.731Z,89.80
2017-11-08T23:39:02.327Z,89.70
2017-11-08T23:41:29.931Z,89.00
2017-11-08T23:43:57.489Z,89.00
2017-11-08T23:46:25.107Z,89.20
2017-11-08T23:48:52.677Z,88.20
2017-11-08T23:51:21.055Z,89.10
2017-11-08T23:53:48.610Z,88.80
2017-11-08T23:56:17.147Z,89.20
2017-11-08T23:58:44.718Z,89.00
